sensor_id;sensor_type;location;lat;lon;timestamp;P1;durP1;ratioP1;P2;durP2;ratioP2
41923;SDS011;27613;48.116;11.656;2023-09-18T00:00:48;3.55;;;2.38;;
41923;SDS011;27613;48.116;11.656;2023-09-18T00:03:18;5.18;;;2.53;;
41923;SDS011;27613;48.116;11.656;2023-09-18T00:05:45;2.97;;;2.30;;
41923;SDS011;27613;48.116;11.656;2023-09-18T00:08:14;4.30;;;2.60;;
41923;SDS011;27613;48.116;11.656;2023-09-18T00:10:40;3.90;;;2.53;;
41923;SDS011;27613;48.116;11.656;2023-09-18T00:13:06;2.88;;;2.30;;
41923;SDS011;27613;48.116;11.656;2023-09-18T00:15:32;4.05;;;2.50;;
41923;SDS011;27613;48.116;11.656;2023-09-18T00:17:57;3.20;;;2.45;;
41923;SDS011;27613;48.116;11.656;2023-09-18T00:20:23;3.90;;;2.67;;
41923;SDS011;27613;48.116;11.656;2023-09-18T00:22:55;5.43;;;2.50;;
41923;SDS011;27613;48.116;11.656;2023-09-18T00:25:21;7.95;;;2.60;;
41923;SDS011;27613;48.116;11.656;2023-09-18T00:27:47;3.70;;;2.25;;
41923;SDS011;27613;48.116;11.656;2023-09-18T00:30:13;3.88;;;2.35;;
41923;SDS011;27613;48.116;11.656;2023-09-18T00:32:38;3.10;;;2.30;;
41923;SDS011;27613;48.116;11.656;2023-09-18T00:35:04;2.83;;;2.13;;
41923;SDS011;27613;48.116;11.656;2023-09-18T00:37:30;3.00;;;2.33;;
41923;SDS011;27613;48.116;11.656;2023-09-18T00:39:55;4.97;;;2.60;;
41923;SDS011;27613;48.116;11.656;2023-09-18T00:42:21;3.92;;;2.17;;
41923;SDS011;27613;48.116;11.656;2023-09-18T00:44:47;3.78;;;2.63;;
41923;SDS011;27613;48.116;11.656;2023-09-18T00:47:14;3.97;;;2.15;;
41923;SDS011;27613;48.116;11.656;2023-09-18T00:49:40;3.45;;;2.17;;
41923;SDS011;27613;48.116;11.656;2023-09-18T00:52:08;3.10;;;2.20;;
41923;SDS011;27613;48.116;11.656;2023-09-18T00:54:35;4.25;;;2.45;;
41923;SDS011;27613;48.116;11.656;2023-09-18T00:57:03;5.82;;;2.42;;
41923;SDS011;27613;48.116;11.656;2023-09-18T00:59:29;3.88;;;2.45;;
41923;SDS011;27613;48.116;11.656;2023-09-18T01:01:56;2.33;;;1.80;;
41923;SDS011;27613;48.116;11.656;2023-09-18T01:04:21;3.08;;;2.03;;
41923;SDS011;27613;48.116;11.656;2023-09-18T01:06:50;2.38;;;1.95;;
41923;SDS011;27613;48.116;11.656;2023-09-18T01:09:16;3.90;;;2.22;;
41923;SDS011;27613;48.116;11.656;2023-09-18T01:14:29;3.92;;;2.20;;
41923;SDS011;27613;48.116;11.656;2023-09-18T01:17:02;2.80;;;1.98;;
41923;SDS011;27613;48.116;11.656;2023-09-18T01:19:40;3.30;;;2.22;;
41923;SDS011;27613;48.116;11.656;2023-09-18T01:22:07;3.40;;;1.90;;
41923;SDS011;27613;48.116;11.656;2023-09-18T01:24:34;4.05;;;1.90;;
41923;SDS011;27613;48.116;11.656;2023-09-18T01:27:02;2.33;;;1.75;;
41923;SDS011;27613;48.116;11.656;2023-09-18T01:29:31;3.53;;;1.95;;
41923;SDS011;27613;48.116;11.656;2023-09-18T01:31:57;2.90;;;1.90;;
41923;SDS011;27613;48.116;11.656;2023-09-18T01:34:25;3.13;;;1.73;;
41923;SDS011;27613;48.116;11.656;2023-09-18T01:36:56;2.92;;;1.92;;
41923;SDS011;27613;48.116;11.656;2023-09-18T01:39:22;3.70;;;1.83;;
41923;SDS011;27613;48.116;11.656;2023-09-18T01:41:49;2.88;;;1.83;;
41923;SDS011;27613;48.116;11.656;2023-09-18T01:44:15;3.95;;;2.00;;
41923;SDS011;27613;48.116;11.656;2023-09-18T01:46:41;2.38;;;1.60;;
41923;SDS011;27613;48.116;11.656;2023-09-18T01:49:09;3.08;;;1.65;;
41923;SDS011;27613;48.116;11.656;2023-09-18T01:51:34;3.17;;;1.70;;
41923;SDS011;27613;48.116;11.656;2023-09-18T01:54:00;5.55;;;2.28;;
41923;SDS011;27613;48.116;11.656;2023-09-18T01:56:25;2.17;;;1.73;;
41923;SDS011;27613;48.116;11.656;2023-09-18T01:58:51;2.83;;;2.00;;
41923;SDS011;27613;48.116;11.656;2023-09-18T02:01:16;2.97;;;1.80;;
41923;SDS011;27613;48.116;11.656;2023-09-18T02:03:42;3.05;;;1.83;;
41923;SDS011;27613;48.116;11.656;2023-09-18T02:06:08;5.28;;;2.03;;
41923;SDS011;27613;48.116;11.656;2023-09-18T02:08:34;6.43;;;2.05;;
41923;SDS011;27613;48.116;11.656;2023-09-18T02:10:59;6.55;;;2.15;;
41923;SDS011;27613;48.116;11.656;2023-09-18T02:13:25;3.97;;;1.92;;
41923;SDS011;27613;48.116;11.656;2023-09-18T02:15:50;4.47;;;1.80;;
41923;SDS011;27613;48.116;11.656;2023-09-18T02:18:16;3.60;;;2.15;;
41923;SDS011;27613;48.116;11.656;2023-09-18T02:20:42;3.15;;;1.67;;
41923;SDS011;27613;48.116;11.656;2023-09-18T02:23:12;2.95;;;2.05;;
41923;SDS011;27613;48.116;11.656;2023-09-18T02:25:38;4.10;;;1.90;;
41923;SDS011;27613;48.116;11.656;2023-09-18T02:28:05;2.47;;;1.58;;
41923;SDS011;27613;48.116;11.656;2023-09-18T02:30:31;4.90;;;2.03;;
41923;SDS011;27613;48.116;11.656;2023-09-18T02:32:56;2.40;;;1.60;;
41923;SDS011;27613;48.116;11.656;2023-09-18T02:35:22;2.78;;;1.67;;
41923;SDS011;27613;48.116;11.656;2023-09-18T02:37:48;3.35;;;1.80;;
41923;SDS011;27613;48.116;11.656;2023-09-18T02:40:13;2.40;;;1.58;;
41923;SDS011;27613;48.116;11.656;2023-09-18T02:42:39;2.58;;;1.65;;
41923;SDS011;27613;48.116;11.656;2023-09-18T02:45:04;4.25;;;1.98;;
41923;SDS011;27613;48.116;11.656;2023-09-18T02:47:31;2.70;;;1.65;;
41923;SDS011;27613;48.116;11.656;2023-09-18T02:49:57;3.10;;;1.58;;
41923;SDS011;27613;48.116;11.656;2023-09-18T02:52:22;5.20;;;1.83;;
41923;SDS011;27613;48.116;11.656;2023-09-18T02:54:48;3.83;;;1.77;;
41923;SDS011;27613;48.116;11.656;2023-09-18T02:57:13;4.43;;;1.77;;
41923;SDS011;27613;48.116;11.656;2023-09-18T02:59:39;5.43;;;2.13;;
41923;SDS011;27613;48.116;11.656;2023-09-18T03:02:04;1.98;;;1.40;;
41923;SDS011;27613;48.116;11.656;2023-09-18T03:04:31;7.18;;;2.10;;
41923;SDS011;27613;48.116;11.656;2023-09-18T03:06:56;4.20;;;1.88;;
41923;SDS011;27613;48.116;11.656;2023-09-18T03:09:22;5.13;;;2.03;;
41923;SDS011;27613;48.116;11.656;2023-09-18T03:11:47;2.92;;;1.90;;
41923;SDS011;27613;48.116;11.656;2023-09-18T03:14:13;4.35;;;2.05;;
41923;SDS011;27613;48.116;11.656;2023-09-18T03:16:39;2.13;;;1.45;;
41923;SDS011;27613;48.116;11.656;2023-09-18T03:19:04;2.72;;;1.73;;
41923;SDS011;27613;48.116;11.656;2023-09-18T03:21:30;2.85;;;1.77;;
41923;SDS011;27613;48.116;11.656;2023-09-18T03:23:58;2.38;;;1.38;;
41923;SDS011;27613;48.116;11.656;2023-09-18T03:26:24;3.33;;;1.75;;
41923;SDS011;27613;48.116;11.656;2023-09-18T03:28:50;3.10;;;1.60;;
41923;SDS011;27613;48.116;11.656;2023-09-18T03:31:15;3.55;;;1.60;;
41923;SDS011;27613;48.116;11.656;2023-09-18T03:33:41;2.47;;;1.58;;
41923;SDS011;27613;48.116;11.656;2023-09-18T03:36:06;2.83;;;1.40;;
41923;SDS011;27613;48.116;11.656;2023-09-18T03:38:33;7.63;;;2.10;;
41923;SDS011;27613;48.116;11.656;2023-09-18T03:41:00;3.47;;;1.90;;
41923;SDS011;27613;48.116;11.656;2023-09-18T03:43:26;3.70;;;1.80;;
41923;SDS011;27613;48.116;11.656;2023-09-18T03:45:51;2.63;;;1.60;;
41923;SDS011;27613;48.116;11.656;2023-09-18T03:48:17;6.35;;;1.98;;
41923;SDS011;27613;48.116;11.656;2023-09-18T03:50:43;3.08;;;1.80;;
41923;SDS011;27613;48.116;11.656;2023-09-18T03:53:09;3.53;;;1.77;;
41923;SDS011;27613;48.116;11.656;2023-09-18T03:55:35;2.88;;;1.67;;
41923;SDS011;27613;48.116;11.656;2023-09-18T03:58:01;4.68;;;1.90;;
41923;SDS011;27613;48.116;11.656;2023-09-18T04:00:28;4.13;;;1.95;;
41923;SDS011;27613;48.116;11.656;2023-09-18T04:02:53;1.35;;;1.20;;
41923;SDS011;27613;48.116;11.656;2023-09-18T04:05:19;1.85;;;1.50;;
41923;SDS011;27613;48.116;11.656;2023-09-18T04:07:44;3.08;;;1.52;;
41923;SDS011;27613;48.116;11.656;2023-09-18T04:10:11;2.20;;;1.58;;
41923;SDS011;27613;48.116;11.656;2023-09-18T04:12:43;1.80;;;1.35;;
41923;SDS011;27613;48.116;11.656;2023-09-18T04:15:11;3.50;;;1.60;;
41923;SDS011;27613;48.116;11.656;2023-09-18T04:17:39;4.47;;;1.52;;
41923;SDS011;27613;48.116;11.656;2023-09-18T04:20:04;3.90;;;1.85;;
41923;SDS011;27613;48.116;11.656;2023-09-18T04:22:31;5.07;;;1.75;;
41923;SDS011;27613;48.116;11.656;2023-09-18T04:24:56;2.88;;;1.55;;
41923;SDS011;27613;48.116;11.656;2023-09-18T04:27:22;4.03;;;1.80;;
41923;SDS011;27613;48.116;11.656;2023-09-18T04:29:47;3.95;;;1.55;;
41923;SDS011;27613;48.116;11.656;2023-09-18T04:32:13;2.67;;;1.80;;
41923;SDS011;27613;48.116;11.656;2023-09-18T04:34:38;3.53;;;1.80;;
41923;SDS011;27613;48.116;11.656;2023-09-18T04:37:04;5.07;;;2.10;;
41923;SDS011;27613;48.116;11.656;2023-09-18T04:39:29;5.45;;;2.03;;
41923;SDS011;27613;48.116;11.656;2023-09-18T04:41:55;3.25;;;2.20;;
41923;SDS011;27613;48.116;11.656;2023-09-18T04:44:21;4.55;;;2.28;;
41923;SDS011;27613;48.116;11.656;2023-09-18T04:46:46;4.65;;;2.03;;
41923;SDS011;27613;48.116;11.656;2023-09-18T04:49:12;4.00;;;2.25;;
41923;SDS011;27613;48.116;11.656;2023-09-18T04:51:38;3.20;;;2.17;;
41923;SDS011;27613;48.116;11.656;2023-09-18T04:54:06;2.70;;;1.88;;
41923;SDS011;27613;48.116;11.656;2023-09-18T04:56:32;3.88;;;1.83;;
41923;SDS011;27613;48.116;11.656;2023-09-18T04:58:58;5.80;;;2.10;;
41923;SDS011;27613;48.116;11.656;2023-09-18T05:01:23;3.13;;;1.65;;
41923;SDS011;27613;48.116;11.656;2023-09-18T05:03:49;3.60;;;1.80;;
41923;SDS011;27613;48.116;11.656;2023-09-18T05:06:16;3.88;;;1.80;;
41923;SDS011;27613;48.116;11.656;2023-09-18T05:08:42;4.13;;;1.90;;
41923;SDS011;27613;48.116;11.656;2023-09-18T05:11:08;4.35;;;2.00;;
41923;SDS011;27613;48.116;11.656;2023-09-18T05:13:34;7.40;;;2.33;;
41923;SDS011;27613;48.116;11.656;2023-09-18T05:15:59;4.97;;;1.73;;
41923;SDS011;27613;48.116;11.656;2023-09-18T05:18:26;3.85;;;1.80;;
41923;SDS011;27613;48.116;11.656;2023-09-18T05:20:51;4.60;;;2.05;;
41923;SDS011;27613;48.116;11.656;2023-09-18T05:23:17;6.30;;;1.73;;
41923;SDS011;27613;48.116;11.656;2023-09-18T05:25:43;4.25;;;2.13;;
41923;SDS011;27613;48.116;11.656;2023-09-18T05:28:09;4.72;;;1.60;;
41923;SDS011;27613;48.116;11.656;2023-09-18T05:30:34;9.32;;;2.10;;
41923;SDS011;27613;48.116;11.656;2023-09-18T05:33:03;5.03;;;2.17;;
41923;SDS011;27613;48.116;11.656;2023-09-18T05:35:33;4.82;;;1.92;;
41923;SDS011;27613;48.116;11.656;2023-09-18T05:38:01;3.55;;;1.92;;
41923;SDS011;27613;48.116;11.656;2023-09-18T05:40:27;4.13;;;1.92;;
41923;SDS011;27613;48.116;11.656;2023-09-18T05:42:53;4.07;;;1.88;;
41923;SDS011;27613;48.116;11.656;2023-09-18T05:45:20;5.00;;;2.35;;
41923;SDS011;27613;48.116;11.656;2023-09-18T05:47:45;3.10;;;2.03;;
41923;SDS011;27613;48.116;11.656;2023-09-18T05:50:12;3.67;;;1.85;;
41923;SDS011;27613;48.116;11.656;2023-09-18T05:52:42;4.07;;;2.00;;
41923;SDS011;27613;48.116;11.656;2023-09-18T05:55:11;4.57;;;2.42;;
41923;SDS011;27613;48.116;11.656;2023-09-18T05:57:37;4.95;;;2.22;;
41923;SDS011;27613;48.116;11.656;2023-09-18T06:00:03;3.67;;;2.00;;
41923;SDS011;27613;48.116;11.656;2023-09-18T06:02:30;3.72;;;2.28;;
41923;SDS011;27613;48.116;11.656;2023-09-18T06:04:56;7.22;;;2.30;;
41923;SDS011;27613;48.116;11.656;2023-09-18T06:07:28;8.45;;;2.30;;
41923;SDS011;27613;48.116;11.656;2023-09-18T06:09:55;4.88;;;2.10;;
41923;SDS011;27613;48.116;11.656;2023-09-18T06:12:21;3.17;;;1.70;;
41923;SDS011;27613;48.116;11.656;2023-09-18T06:14:47;3.63;;;1.92;;
41923;SDS011;27613;48.116;11.656;2023-09-18T06:17:13;6.63;;;2.10;;
41923;SDS011;27613;48.116;11.656;2023-09-18T06:19:40;3.38;;;1.83;;
41923;SDS011;27613;48.116;11.656;2023-09-18T06:22:05;6.35;;;1.95;;
41923;SDS011;27613;48.116;11.656;2023-09-18T06:24:32;4.13;;;1.85;;
41923;SDS011;27613;48.116;11.656;2023-09-18T06:26:59;5.25;;;2.03;;
41923;SDS011;27613;48.116;11.656;2023-09-18T06:29:24;3.38;;;1.73;;
41923;SDS011;27613;48.116;11.656;2023-09-18T06:31:50;4.30;;;2.08;;
41923;SDS011;27613;48.116;11.656;2023-09-18T06:34:16;6.20;;;2.65;;
41923;SDS011;27613;48.116;11.656;2023-09-18T06:36:41;4.32;;;2.13;;
41923;SDS011;27613;48.116;11.656;2023-09-18T06:39:07;3.85;;;1.90;;
41923;SDS011;27613;48.116;11.656;2023-09-18T06:41:32;4.75;;;2.20;;
41923;SDS011;27613;48.116;11.656;2023-09-18T06:43:58;4.25;;;2.35;;
41923;SDS011;27613;48.116;11.656;2023-09-18T06:46:27;4.15;;;1.98;;
41923;SDS011;27613;48.116;11.656;2023-09-18T06:48:53;3.83;;;2.05;;
41923;SDS011;27613;48.116;11.656;2023-09-18T06:51:18;4.35;;;2.28;;
41923;SDS011;27613;48.116;11.656;2023-09-18T06:53:44;5.50;;;1.95;;
41923;SDS011;27613;48.116;11.656;2023-09-18T06:56:10;3.83;;;1.85;;
41923;SDS011;27613;48.116;11.656;2023-09-18T06:58:37;3.92;;;1.65;;
41923;SDS011;27613;48.116;11.656;2023-09-18T07:01:03;4.30;;;1.88;;
41923;SDS011;27613;48.116;11.656;2023-09-18T07:03:31;2.92;;;1.80;;
41923;SDS011;27613;48.116;11.656;2023-09-18T07:05:59;7.20;;;2.15;;
41923;SDS011;27613;48.116;11.656;2023-09-18T07:08:25;13.55;;;2.08;;
41923;SDS011;27613;48.116;11.656;2023-09-18T07:10:51;5.53;;;2.00;;
41923;SDS011;27613;48.116;11.656;2023-09-18T07:13:16;4.55;;;2.20;;
41923;SDS011;27613;48.116;11.656;2023-09-18T07:15:42;4.88;;;2.03;;
41923;SDS011;27613;48.116;11.656;2023-09-18T07:18:08;8.10;;;2.47;;
41923;SDS011;27613;48.116;11.656;2023-09-18T07:20:38;4.88;;;2.10;;
41923;SDS011;27613;48.116;11.656;2023-09-18T07:23:05;4.85;;;2.10;;
41923;SDS011;27613;48.116;11.656;2023-09-18T07:25:30;3.85;;;1.83;;
41923;SDS011;27613;48.116;11.656;2023-09-18T07:27:56;4.00;;;2.00;;
41923;SDS011;27613;48.116;11.656;2023-09-18T07:30:21;4.47;;;2.10;;
41923;SDS011;27613;48.116;11.656;2023-09-18T07:32:47;5.20;;;2.33;;
41923;SDS011;27613;48.116;11.656;2023-09-18T07:35:12;7.57;;;1.95;;
41923;SDS011;27613;48.116;11.656;2023-09-18T07:37:39;2.70;;;1.60;;
41923;SDS011;27613;48.116;11.656;2023-09-18T07:40:05;4.38;;;2.00;;
41923;SDS011;27613;48.116;11.656;2023-09-18T07:42:31;9.57;;;2.10;;
41923;SDS011;27613;48.116;11.656;2023-09-18T07:44:58;3.22;;;1.85;;
41923;SDS011;27613;48.116;11.656;2023-09-18T07:47:23;6.22;;;2.20;;
41923;SDS011;27613;48.116;11.656;2023-09-18T07:49:49;3.75;;;2.00;;
41923;SDS011;27613;48.116;11.656;2023-09-18T07:52:15;3.97;;;2.13;;
41923;SDS011;27613;48.116;11.656;2023-09-18T07:54:41;4.07;;;1.83;;
41923;SDS011;27613;48.116;11.656;2023-09-18T07:57:07;2.58;;;1.65;;
41923;SDS011;27613;48.116;11.656;2023-09-18T07:59:34;5.05;;;1.90;;
41923;SDS011;27613;48.116;11.656;2023-09-18T08:02:07;4.25;;;1.88;;
41923;SDS011;27613;48.116;11.656;2023-09-18T08:04:34;4.78;;;1.92;;
41923;SDS011;27613;48.116;11.656;2023-09-18T08:07:00;3.50;;;1.85;;
41923;SDS011;27613;48.116;11.656;2023-09-18T08:09:25;4.00;;;1.98;;
41923;SDS011;27613;48.116;11.656;2023-09-18T08:11:54;3.47;;;1.65;;
41923;SDS011;27613;48.116;11.656;2023-09-18T08:14:20;2.53;;;1.60;;
41923;SDS011;27613;48.116;11.656;2023-09-18T08:16:46;3.42;;;2.03;;
41923;SDS011;27613;48.116;11.656;2023-09-18T08:19:15;3.50;;;1.80;;
41923;SDS011;27613;48.116;11.656;2023-09-18T08:21:41;3.47;;;1.77;;
41923;SDS011;27613;48.116;11.656;2023-09-18T08:24:07;5.85;;;1.95;;
41923;SDS011;27613;48.116;11.656;2023-09-18T08:26:33;3.08;;;1.73;;
41923;SDS011;27613;48.116;11.656;2023-09-18T08:28:58;2.63;;;1.75;;
41923;SDS011;27613;48.116;11.656;2023-09-18T08:31:24;3.53;;;1.65;;
41923;SDS011;27613;48.116;11.656;2023-09-18T08:33:49;3.35;;;1.90;;
41923;SDS011;27613;48.116;11.656;2023-09-18T08:36:15;3.85;;;1.73;;
41923;SDS011;27613;48.116;11.656;2023-09-18T08:38:41;4.10;;;1.83;;
41923;SDS011;27613;48.116;11.656;2023-09-18T08:41:08;2.50;;;1.67;;
41923;SDS011;27613;48.116;11.656;2023-09-18T08:43:35;2.60;;;1.70;;
41923;SDS011;27613;48.116;11.656;2023-09-18T08:46:03;4.70;;;1.90;;
41923;SDS011;27613;48.116;11.656;2023-09-18T08:48:29;3.90;;;2.10;;
41923;SDS011;27613;48.116;11.656;2023-09-18T08:51:01;3.80;;;2.20;;
41923;SDS011;27613;48.116;11.656;2023-09-18T08:53:31;8.60;;;3.30;;
41923;SDS011;27613;48.116;11.656;2023-09-18T08:55:58;11.85;;;2.92;;
41923;SDS011;27613;48.116;11.656;2023-09-18T08:58:27;9.18;;;3.17;;
41923;SDS011;27613;48.116;11.656;2023-09-18T09:00:56;3.05;;;1.73;;
41923;SDS011;27613;48.116;11.656;2023-09-18T09:03:22;3.60;;;1.80;;
41923;SDS011;27613;48.116;11.656;2023-09-18T09:05:48;5.68;;;2.65;;
41923;SDS011;27613;48.116;11.656;2023-09-18T09:08:14;6.25;;;2.20;;
41923;SDS011;27613;48.116;11.656;2023-09-18T09:10:40;8.32;;;2.15;;
41923;SDS011;27613;48.116;11.656;2023-09-18T09:13:06;3.25;;;2.08;;
41923;SDS011;27613;48.116;11.656;2023-09-18T09:15:42;4.38;;;1.75;;
41923;SDS011;27613;48.116;11.656;2023-09-18T09:18:11;5.97;;;2.70;;
41923;SDS011;27613;48.116;11.656;2023-09-18T09:20:39;4.32;;;2.00;;
41923;SDS011;27613;48.116;11.656;2023-09-18T09:23:07;5.30;;;2.00;;
41923;SDS011;27613;48.116;11.656;2023-09-18T09:25:34;5.30;;;2.20;;
41923;SDS011;27613;48.116;11.656;2023-09-18T09:28:05;4.93;;;2.10;;
41923;SDS011;27613;48.116;11.656;2023-09-18T09:30:32;3.40;;;2.17;;
41923;SDS011;27613;48.116;11.656;2023-09-18T09:32:59;5.70;;;2.30;;
41923;SDS011;27613;48.116;11.656;2023-09-18T09:35:28;3.25;;;1.85;;
41923;SDS011;27613;48.116;11.656;2023-09-18T09:38:01;6.78;;;1.90;;
41923;SDS011;27613;48.116;11.656;2023-09-18T09:40:33;3.65;;;1.73;;
41923;SDS011;27613;48.116;11.656;2023-09-18T09:43:00;4.32;;;2.03;;
41923;SDS011;27613;48.116;11.656;2023-09-18T09:45:28;3.65;;;1.70;;
41923;SDS011;27613;48.116;11.656;2023-09-18T09:47:55;5.63;;;2.05;;
41923;SDS011;27613;48.116;11.656;2023-09-18T09:50:24;5.10;;;2.13;;
41923;SDS011;27613;48.116;11.656;2023-09-18T09:52:51;3.83;;;1.83;;
41923;SDS011;27613;48.116;11.656;2023-09-18T09:58:00;6.70;;;2.28;;
41923;SDS011;27613;48.116;11.656;2023-09-18T10:00:31;6.18;;;2.25;;
41923;SDS011;27613;48.116;11.656;2023-09-18T10:03:05;2.85;;;1.70;;
41923;SDS011;27613;48.116;11.656;2023-09-18T10:05:34;6.13;;;2.05;;
41923;SDS011;27613;48.116;11.656;2023-09-18T10:08:06;4.07;;;1.67;;
41923;SDS011;27613;48.116;11.656;2023-09-18T10:10:47;8.05;;;2.38;;
41923;SDS011;27613;48.116;11.656;2023-09-18T10:13:28;4.53;;;1.98;;
41923;SDS011;27613;48.116;11.656;2023-09-18T10:16:06;3.92;;;1.60;;
41923;SDS011;27613;48.116;11.656;2023-09-18T10:24:37;3.92;;;1.80;;
41923;SDS011;27613;48.116;11.656;2023-09-18T10:27:06;7.82;;;2.53;;
41923;SDS011;27613;48.116;11.656;2023-09-18T10:29:34;5.70;;;1.85;;
41923;SDS011;27613;48.116;11.656;2023-09-18T10:32:05;5.15;;;2.08;;
41923;SDS011;27613;48.116;11.656;2023-09-18T10:34:34;3.50;;;1.80;;
41923;SDS011;27613;48.116;11.656;2023-09-18T10:37:01;2.83;;;1.50;;
41923;SDS011;27613;48.116;11.656;2023-09-18T10:39:32;5.93;;;1.70;;
41923;SDS011;27613;48.116;11.656;2023-09-18T10:42:01;6.57;;;1.73;;
41923;SDS011;27613;48.116;11.656;2023-09-18T10:44:28;4.03;;;1.80;;
41923;SDS011;27613;48.116;11.656;2023-09-18T10:46:56;6.68;;;1.98;;
41923;SDS011;27613;48.116;11.656;2023-09-18T10:49:23;7.13;;;2.13;;
41923;SDS011;27613;48.116;11.656;2023-09-18T10:51:52;4.22;;;1.92;;
41923;SDS011;27613;48.116;11.656;2023-09-18T10:54:20;4.10;;;1.83;;
41923;SDS011;27613;48.116;11.656;2023-09-18T10:56:47;3.78;;;1.38;;
41923;SDS011;27613;48.116;11.656;2023-09-18T10:59:13;7.97;;;1.83;;
41923;SDS011;27613;48.116;11.656;2023-09-18T11:01:40;8.95;;;2.47;;
41923;SDS011;27613;48.116;11.656;2023-09-18T11:04:07;9.45;;;2.25;;
41923;SDS011;27613;48.116;11.656;2023-09-18T11:09:28;3.28;;;1.90;;
41923;SDS011;27613;48.116;11.656;2023-09-18T11:14:23;6.00;;;2.13;;
41923;SDS011;27613;48.116;11.656;2023-09-18T11:20:01;6.93;;;2.10;;
41923;SDS011;27613;48.116;11.656;2023-09-18T11:22:34;5.43;;;2.15;;
41923;SDS011;27613;48.116;11.656;2023-09-18T11:28:02;5.68;;;1.83;;
41923;SDS011;27613;48.116;11.656;2023-09-18T11:30:31;8.90;;;2.38;;
41923;SDS011;27613;48.116;11.656;2023-09-18T11:33:00;6.85;;;2.08;;
41923;SDS011;27613;48.116;11.656;2023-09-18T11:35:31;6.43;;;2.22;;
41923;SDS011;27613;48.116;11.656;2023-09-18T11:38:05;6.30;;;2.55;;
41923;SDS011;27613;48.116;11.656;2023-09-18T11:40:33;8.23;;;2.78;;
41923;SDS011;27613;48.116;11.656;2023-09-18T11:45:52;5.82;;;2.55;;
41923;SDS011;27613;48.116;11.656;2023-09-18T11:48:19;6.53;;;2.33;;
41923;SDS011;27613;48.116;11.656;2023-09-18T11:50:45;5.75;;;1.90;;
41923;SDS011;27613;48.116;11.656;2023-09-18T11:53:13;6.68;;;2.38;;
41923;SDS011;27613;48.116;11.656;2023-09-18T11:55:39;4.50;;;1.45;;
41923;SDS011;27613;48.116;11.656;2023-09-18T11:58:05;5.15;;;1.42;;
41923;SDS011;27613;48.116;11.656;2023-09-18T12:00:31;5.05;;;1.63;;
41923;SDS011;27613;48.116;11.656;2023-09-18T12:02:57;5.82;;;1.65;;
41923;SDS011;27613;48.116;11.656;2023-09-18T12:05:23;4.28;;;1.30;;
41923;SDS011;27613;48.116;11.656;2023-09-18T12:07:51;3.80;;;1.25;;
41923;SDS011;27613;48.116;11.656;2023-09-18T12:10:18;3.25;;;1.25;;
41923;SDS011;27613;48.116;11.656;2023-09-18T12:12:48;5.97;;;1.27;;
41923;SDS011;27613;48.116;11.656;2023-09-18T12:15:14;3.53;;;1.15;;
41923;SDS011;27613;48.116;11.656;2023-09-18T12:17:42;2.78;;;1.35;;
41923;SDS011;27613;48.116;11.656;2023-09-18T12:20:14;4.78;;;1.30;;
41923;SDS011;27613;48.116;11.656;2023-09-18T12:22:48;3.25;;;1.30;;
41923;SDS011;27613;48.116;11.656;2023-09-18T12:25:18;2.50;;;1.17;;
41923;SDS011;27613;48.116;11.656;2023-09-18T12:27:44;6.18;;;1.23;;
41923;SDS011;27613;48.116;11.656;2023-09-18T12:30:10;2.15;;;1.13;;
41923;SDS011;27613;48.116;11.656;2023-09-18T12:32:45;3.85;;;1.00;;
41923;SDS011;27613;48.116;11.656;2023-09-18T12:35:14;4.82;;;1.38;;
41923;SDS011;27613;48.116;11.656;2023-09-18T12:37:43;6.55;;;1.17;;
41923;SDS011;27613;48.116;11.656;2023-09-18T12:40:25;4.75;;;1.40;;
41923;SDS011;27613;48.116;11.656;2023-09-18T12:42:58;5.57;;;1.15;;
41923;SDS011;27613;48.116;11.656;2023-09-18T12:45:25;3.42;;;1.23;;
41923;SDS011;27613;48.116;11.656;2023-09-18T12:47:54;3.05;;;1.20;;
41923;SDS011;27613;48.116;11.656;2023-09-18T12:50:21;5.72;;;1.10;;
41923;SDS011;27613;48.116;11.656;2023-09-18T12:52:47;2.08;;;1.23;;
41923;SDS011;27613;48.116;11.656;2023-09-18T12:55:22;2.53;;;0.98;;
41923;SDS011;27613;48.116;11.656;2023-09-18T12:57:49;4.03;;;0.90;;
41923;SDS011;27613;48.116;11.656;2023-09-18T13:00:19;3.88;;;0.98;;
41923;SDS011;27613;48.116;11.656;2023-09-18T13:02:47;1.05;;;0.70;;
41923;SDS011;27613;48.116;11.656;2023-09-18T13:05:18;2.60;;;1.00;;
41923;SDS011;27613;48.116;11.656;2023-09-18T13:07:44;1.30;;;0.80;;
41923;SDS011;27613;48.116;11.656;2023-09-18T13:10:10;4.35;;;1.10;;
41923;SDS011;27613;48.116;11.656;2023-09-18T13:12:42;3.35;;;0.88;;
41923;SDS011;27613;48.116;11.656;2023-09-18T13:15:08;2.28;;;1.00;;
41923;SDS011;27613;48.116;11.656;2023-09-18T13:20:16;3.08;;;0.93;;
41923;SDS011;27613;48.116;11.656;2023-09-18T13:22:47;2.10;;;0.90;;
41923;SDS011;27613;48.116;11.656;2023-09-18T13:25:18;2.08;;;1.00;;
41923;SDS011;27613;48.116;11.656;2023-09-18T13:27:48;2.70;;;0.63;;
41923;SDS011;27613;48.116;11.656;2023-09-18T13:30:14;2.03;;;0.95;;
41923;SDS011;27613;48.116;11.656;2023-09-18T13:32:42;3.35;;;1.10;;
41923;SDS011;27613;48.116;11.656;2023-09-18T13:35:09;1.45;;;0.77;;
41923;SDS011;27613;48.116;11.656;2023-09-18T13:37:36;2.50;;;1.00;;
41923;SDS011;27613;48.116;11.656;2023-09-18T13:40:03;5.57;;;1.02;;
41923;SDS011;27613;48.116;11.656;2023-09-18T13:42:32;3.00;;;1.15;;
41923;SDS011;27613;48.116;11.656;2023-09-18T13:44:58;1.52;;;0.70;;
41923;SDS011;27613;48.116;11.656;2023-09-18T13:47:29;2.40;;;1.13;;
41923;SDS011;27613;48.116;11.656;2023-09-18T13:49:55;1.58;;;0.90;;
41923;SDS011;27613;48.116;11.656;2023-09-18T13:52:25;0.95;;;0.70;;
41923;SDS011;27613;48.116;11.656;2023-09-18T13:54:54;1.75;;;0.90;;
41923;SDS011;27613;48.116;11.656;2023-09-18T13:57:20;3.40;;;1.15;;
41923;SDS011;27613;48.116;11.656;2023-09-18T13:59:46;1.35;;;0.93;;
41923;SDS011;27613;48.116;11.656;2023-09-18T14:02:13;1.05;;;0.73;;
41923;SDS011;27613;48.116;11.656;2023-09-18T14:04:39;2.88;;;0.90;;
41923;SDS011;27613;48.116;11.656;2023-09-18T14:07:08;2.42;;;1.02;;
41923;SDS011;27613;48.116;11.656;2023-09-18T14:09:35;1.45;;;0.90;;
41923;SDS011;27613;48.116;11.656;2023-09-18T14:12:01;1.88;;;0.85;;
41923;SDS011;27613;48.116;11.656;2023-09-18T14:14:27;1.40;;;0.77;;
41923;SDS011;27613;48.116;11.656;2023-09-18T14:16:53;1.05;;;0.73;;
41923;SDS011;27613;48.116;11.656;2023-09-18T14:19:19;1.45;;;0.73;;
41923;SDS011;27613;48.116;11.656;2023-09-18T14:21:45;2.00;;;0.80;;
41923;SDS011;27613;48.116;11.656;2023-09-18T14:24:10;1.55;;;0.70;;
41923;SDS011;27613;48.116;11.656;2023-09-18T14:26:36;1.80;;;0.65;;
41923;SDS011;27613;48.116;11.656;2023-09-18T14:29:09;2.15;;;0.88;;
41923;SDS011;27613;48.116;11.656;2023-09-18T14:31:38;2.00;;;0.80;;
41923;SDS011;27613;48.116;11.656;2023-09-18T14:34:04;2.80;;;0.88;;
41923;SDS011;27613;48.116;11.656;2023-09-18T14:36:30;2.05;;;0.85;;
41923;SDS011;27613;48.116;11.656;2023-09-18T14:38:57;2.67;;;1.10;;
41923;SDS011;27613;48.116;11.656;2023-09-18T14:41:24;1.92;;;0.70;;
41923;SDS011;27613;48.116;11.656;2023-09-18T14:43:50;2.58;;;0.90;;
41923;SDS011;27613;48.116;11.656;2023-09-18T14:46:16;1.05;;;0.63;;
41923;SDS011;27613;48.116;11.656;2023-09-18T14:48:42;2.90;;;0.77;;
41923;SDS011;27613;48.116;11.656;2023-09-18T14:51:07;1.88;;;0.88;;
41923;SDS011;27613;48.116;11.656;2023-09-18T14:53:33;0.82;;;0.60;;
41923;SDS011;27613;48.116;11.656;2023-09-18T14:55:59;1.00;;;0.80;;
41923;SDS011;27613;48.116;11.656;2023-09-18T14:58:25;1.85;;;0.90;;
41923;SDS011;27613;48.116;11.656;2023-09-18T15:00:51;1.40;;;0.68;;